createdAt,value
2023-09-07T00:02:15.898Z,18.90
2023-09-07T00:04:44.604Z,18.87
2023-09-07T00:07:12.377Z,18.83
2023-09-07T00:09:40.051Z,18.79
2023-09-07T00:12:07.740Z,18.75
2023-09-07T00:14:35.410Z,18.69
2023-09-07T00:17:04.320Z,18.69
2023-09-07T00:19:34.369Z,18.68
2023-09-07T00:22:02.100Z,18.66
2023-09-07T00:24:29.689Z,18.64
2023-09-07T00:26:57.236Z,18.63
2023-09-07T00:29:24.866Z,18.52
2023-09-07T00:31:52.642Z,18.50
2023-09-07T00:34:20.337Z,18.48
2023-09-07T00:36:48.014Z,18.44
2023-09-07T00:39:15.576Z,18.42
2023-09-07T00:41:46.058Z,18.43
2023-09-07T00:44:13.752Z,18.35
2023-09-07T00:46:41.319Z,18.32
2023-09-07T00:49:08.927Z,18.27
2023-09-07T00:51:36.600Z,18.18
2023-09-07T00:54:04.359Z,18.10
2023-09-07T00:56:32.012Z,18.01
2023-09-07T00:59:01.539Z,17.93
2023-09-07T01:01:29.086Z,17.90
2023-09-07T01:03:58.703Z,17.88
2023-09-07T01:06:31.915Z,17.84
2023-09-07T01:09:02.162Z,17.80
2023-09-07T01:11:37.243Z,17.79
2023-09-07T01:14:05.505Z,17.79
2023-09-07T01:16:37.128Z,17.74
2023-09-07T01:19:06.051Z,17.71
2023-09-07T01:21:36.809Z,17.75
2023-09-07T01:24:11.194Z,17.74
2023-09-07T01:26:41.768Z,17.74
2023-09-07T01:29:10.637Z,17.74
2023-09-07T01:31:39.471Z,17.72
2023-09-07T01:34:10.300Z,17.69
2023-09-07T01:36:39.484Z,17.65
2023-09-07T01:39:07.319Z,17.58
2023-09-07T01:41:35.446Z,17.50
2023-09-07T01:44:03.052Z,17.49
2023-09-07T01:46:33.929Z,17.46
2023-09-07T01:49:01.569Z,17.45
2023-09-07T01:51:29.239Z,17.37
2023-09-07T01:53:56.822Z,17.29
2023-09-07T01:56:24.663Z,17.23
2023-09-07T01:58:52.544Z,17.22
2023-09-07T02:01:24.661Z,17.16
2023-09-07T02:03:52.568Z,17.13
2023-09-07T02:06:20.221Z,17.10
2023-09-07T02:08:48.181Z,17.02
2023-09-07T02:11:16.220Z,16.99
2023-09-07T02:13:44.497Z,17.00
2023-09-07T02:16:12.244Z,16.99
2023-09-07T02:18:44.757Z,16.96
2023-09-07T02:21:12.750Z,16.90
2023-09-07T02:23:40.510Z,16.85
2023-09-07T02:26:08.272Z,16.84
2023-09-07T02:28:36.381Z,16.83
2023-09-07T02:31:04.889Z,16.86
2023-09-07T02:33:32.818Z,16.86
2023-09-07T02:36:00.901Z,16.84
2023-09-07T02:38:28.769Z,16.85
2023-09-07T02:40:56.790Z,16.85
2023-09-07T02:43:24.623Z,16.84
2023-09-07T02:45:52.099Z,16.82
2023-09-07T02:48:21.934Z,16.84
2023-09-07T02:50:54.988Z,16.85
2023-09-07T02:53:24.031Z,16.85
2023-09-07T02:55:51.805Z,16.81
2023-09-07T02:58:19.586Z,16.78
2023-09-07T03:00:48.738Z,16.74
2023-09-07T03:03:18.016Z,16.74
2023-09-07T03:05:46.946Z,16.71
2023-09-07T03:08:14.844Z,16.68
2023-09-07T03:10:44.689Z,16.62
2023-09-07T03:13:12.355Z,16.55
2023-09-07T03:15:40.170Z,16.51
2023-09-07T03:18:10.820Z,16.47
2023-09-07T03:20:39.794Z,16.42
2023-09-07T03:23:08.153Z,16.37
2023-09-07T03:25:36.546Z,16.33
2023-09-07T03:28:05.138Z,16.32
2023-09-07T03:30:34.329Z,16.33
2023-09-07T03:33:01.898Z,16.40
2023-09-07T03:35:30.798Z,16.34
2023-09-07T03:37:58.358Z,16.31
2023-09-07T03:40:26.126Z,16.38
2023-09-07T03:42:53.762Z,16.39
2023-09-07T03:45:21.317Z,16.36
2023-09-07T03:47:49.346Z,16.34
2023-09-07T03:50:17.515Z,16.33
2023-09-07T03:52:45.133Z,16.38
2023-09-07T03:55:13.049Z,16.30
2023-09-07T03:57:40.819Z,16.25
2023-09-07T04:00:09.778Z,16.23
2023-09-07T04:02:47.704Z,16.22
2023-09-07T04:05:15.553Z,16.20
2023-09-07T04:07:42.997Z,16.19
2023-09-07T04:10:10.810Z,16.25
2023-09-07T04:12:38.342Z,16.24
2023-09-07T04:15:06.688Z,16.23
2023-09-07T04:17:41.979Z,16.25
2023-09-07T04:20:10.416Z,16.34
2023-09-07T04:22:37.927Z,16.36
2023-09-07T04:25:05.964Z,16.37
2023-09-07T04:27:34.876Z,16.42
2023-09-07T04:30:04.593Z,16.49
2023-09-07T04:32:32.657Z,16.57
2023-09-07T04:35:00.762Z,16.64
2023-09-07T04:37:28.333Z,16.71
2023-09-07T04:39:56.294Z,16.75
2023-09-07T04:42:24.289Z,16.83
2023-09-07T04:44:51.774Z,16.91
2023-09-07T04:47:19.525Z,17.01
2023-09-07T04:49:53.471Z,17.12
2023-09-07T04:52:23.306Z,17.19
2023-09-07T04:54:51.048Z,17.28
2023-09-07T04:57:19.445Z,17.45
2023-09-07T04:59:47.596Z,17.55
2023-09-07T05:02:15.318Z,17.65
2023-09-07T05:04:42.839Z,17.73
2023-09-07T05:07:11.336Z,17.80
2023-09-07T05:09:38.928Z,17.86
2023-09-07T05:12:06.830Z,17.94
2023-09-07T05:14:34.402Z,18.00
2023-09-07T05:17:02.369Z,18.07
2023-09-07T05:19:30.590Z,18.17
2023-09-07T05:21:58.110Z,18.29
2023-09-07T05:24:26.114Z,18.41
2023-09-07T05:26:53.624Z,18.53
2023-09-07T05:29:22.984Z,18.68
2023-09-07T05:31:50.724Z,18.83
2023-09-07T05:34:19.313Z,19.01
2023-09-07T05:36:47.135Z,19.16
2023-09-07T05:39:15.058Z,19.35
2023-09-07T05:41:43.441Z,19.55
2023-09-07T05:44:11.014Z,19.71
2023-09-07T05:46:41.286Z,19.90
2023-09-07T05:49:10.059Z,20.07
2023-09-07T05:51:38.047Z,20.25
2023-09-07T05:54:05.741Z,20.44
2023-09-07T05:56:34.810Z,20.63
2023-09-07T05:59:02.620Z,20.79
2023-09-07T06:01:30.203Z,20.93
2023-09-07T06:04:01.581Z,21.05
2023-09-07T06:06:30.338Z,21.16
2023-09-07T06:09:06.290Z,21.26
2023-09-07T06:11:34.664Z,21.37
2023-09-07T06:14:21.088Z,21.51
2023-09-07T06:16:49.023Z,21.64
2023-09-07T06:19:16.705Z,21.74
2023-09-07T06:21:44.369Z,21.83
2023-09-07T06:24:12.835Z,21.91
2023-09-07T06:26:45.993Z,22.03
2023-09-07T06:29:13.845Z,22.21
2023-09-07T06:31:43.104Z,22.40
2023-09-07T06:34:11.443Z,22.59
2023-09-07T06:36:48.015Z,22.80
2023-09-07T06:39:19.609Z,23.02
2023-09-07T06:41:48.780Z,23.24
2023-09-07T06:44:19.867Z,23.41
2023-09-07T06:46:48.145Z,23.56
2023-09-07T06:49:18.970Z,23.71
2023-09-07T06:51:46.608Z,23.92
2023-09-07T06:54:16.520Z,24.10
2023-09-07T06:56:44.505Z,24.27
2023-09-07T06:59:12.152Z,24.47
2023-09-07T07:01:39.856Z,24.64
2023-09-07T07:04:09.286Z,24.80
2023-09-07T07:06:38.298Z,24.93
2023-09-07T07:09:09.722Z,25.09
2023-09-07T07:11:53.650Z,25.26
2023-09-07T07:14:28.432Z,25.44
2023-09-07T07:16:56.247Z,25.58
2023-09-07T07:19:25.951Z,25.64
2023-09-07T07:22:09.908Z,25.67
2023-09-07T07:24:37.812Z,25.77
2023-09-07T07:27:12.286Z,25.88
2023-09-07T07:29:41.205Z,25.98
2023-09-07T07:32:09.062Z,26.11
2023-09-07T07:34:40.057Z,26.23
2023-09-07T07:37:08.257Z,26.28
2023-09-07T07:39:36.151Z,26.19
2023-09-07T07:42:17.220Z,26.05
2023-09-07T07:44:45.430Z,25.99
2023-09-07T07:47:14.020Z,26.04
2023-09-07T07:49:41.749Z,26.07
2023-09-07T07:52:09.385Z,26.11
2023-09-07T07:54:37.831Z,26.13
2023-09-07T07:57:07.698Z,26.20
2023-09-07T07:59:36.409Z,26.25
2023-09-07T08:02:04.556Z,26.26
2023-09-07T08:04:35.846Z,26.25
2023-09-07T08:07:08.837Z,26.24
2023-09-07T08:09:37.291Z,26.18
2023-09-07T08:12:07.828Z,26.14
2023-09-07T08:14:36.185Z,26.11
2023-09-07T08:17:04.714Z,26.11
2023-09-07T08:19:33.931Z,26.18
2023-09-07T08:22:05.094Z,26.26
2023-09-07T08:24:37.531Z,26.33
2023-09-07T08:27:09.373Z,26.41
2023-09-07T08:29:42.085Z,26.47
2023-09-07T08:32:33.370Z,26.48
2023-09-07T08:35:02.907Z,26.48
2023-09-07T08:37:37.625Z,26.56
2023-09-07T08:40:13.194Z,26.63
2023-09-07T08:42:41.294Z,26.62
2023-09-07T08:45:10.426Z,26.65
2023-09-07T08:47:41.022Z,26.72
2023-09-07T08:50:10.669Z,26.78
2023-09-07T08:52:38.493Z,26.83
2023-09-07T08:55:06.592Z,26.90
2023-09-07T08:57:34.173Z,26.87
2023-09-07T09:00:02.483Z,26.76
2023-09-07T09:02:37.316Z,26.72
2023-09-07T09:05:17.120Z,26.73
2023-09-07T09:07:50.685Z,26.77
2023-09-07T09:10:19.061Z,26.79
2023-09-07T09:12:56.210Z,26.86
2023-09-07T09:15:25.618Z,26.93
2023-09-07T09:17:58.247Z,26.98
2023-09-07T09:20:28.271Z,27.00
2023-09-07T09:22:56.523Z,27.03
2023-09-07T09:25:24.340Z,27.07
2023-09-07T09:27:56.139Z,27.10
2023-09-07T09:30:23.926Z,27.17
2023-09-07T09:32:52.453Z,27.23
2023-09-07T09:35:20.981Z,27.33
2023-09-07T09:37:50.213Z,27.44
2023-09-07T09:40:18.097Z,27.47
2023-09-07T09:42:46.280Z,27.49
2023-09-07T09:45:14.571Z,27.50
2023-09-07T09:47:43.373Z,27.53
2023-09-07T09:50:14.931Z,27.54
2023-09-07T09:52:42.673Z,27.56
2023-09-07T09:55:14.455Z,27.58
2023-09-07T09:57:42.348Z,27.59
2023-09-07T10:00:30.619Z,27.59
2023-09-07T10:04:01.601Z,27.66
2023-09-07T10:06:31.023Z,27.75
2023-09-07T10:09:06.312Z,27.80
2023-09-07T10:11:35.722Z,27.79
2023-09-07T10:14:09.950Z,27.81
2023-09-07T10:16:48.658Z,27.84
2023-09-07T10:19:23.581Z,27.86
2023-09-07T10:21:52.307Z,27.83
2023-09-07T10:24:37.198Z,27.79
2023-09-07T10:27:08.479Z,27.73
2023-09-07T10:29:56.363Z,27.71
2023-09-07T10:32:28.058Z,27.71
2023-09-07T10:34:55.605Z,27.79
2023-09-07T10:37:29.977Z,27.89
2023-09-07T10:39:58.962Z,27.99
2023-09-07T10:42:26.736Z,28.04
2023-09-07T10:44:55.531Z,28.02
2023-09-07T10:47:23.503Z,27.95
2023-09-07T10:49:51.097Z,27.93
2023-09-07T10:52:18.999Z,27.97
2023-09-07T10:54:46.695Z,28.07
2023-09-07T10:57:19.414Z,28.17
2023-09-07T10:59:47.651Z,28.28
2023-09-07T11:02:17.316Z,28.40
2023-09-07T11:04:45.350Z,28.48
2023-09-07T11:07:13.553Z,28.47
2023-09-07T11:09:42.753Z,28.41
2023-09-07T11:12:14.533Z,28.23
2023-09-07T11:14:42.281Z,28.05
2023-09-07T11:17:10.316Z,28.01
2023-09-07T11:19:39.168Z,28.03
2023-09-07T11:22:19.419Z,28.06
2023-09-07T11:24:47.544Z,28.12
2023-09-07T11:27:18.728Z,28.19
2023-09-07T11:29:53.686Z,28.26
2023-09-07T11:32:23.317Z,28.34
2023-09-07T11:34:51.960Z,28.37
2023-09-07T11:37:23.668Z,28.38
2023-09-07T11:39:54.711Z,28.40
2023-09-07T11:42:25.724Z,28.43
2023-09-07T11:44:53.364Z,28.42
2023-09-07T11:47:21.660Z,28.40
2023-09-07T11:49:52.474Z,28.39
2023-09-07T11:52:20.360Z,28.42
2023-09-07T11:54:48.357Z,28.42
2023-09-07T11:57:17.709Z,28.43
2023-09-07T11:59:58.630Z,28.46
2023-09-07T12:02:31.414Z,28.49
2023-09-07T12:05:04.913Z,28.54
2023-09-07T12:07:32.597Z,28.59
2023-09-07T12:10:03.698Z,28.66
2023-09-07T12:12:31.685Z,28.76
2023-09-07T12:14:59.264Z,28.85
2023-09-07T12:17:27.110Z,28.87
2023-09-07T12:19:54.901Z,28.89
2023-09-07T12:22:22.530Z,28.86
2023-09-07T12:25:02.231Z,28.81
2023-09-07T12:27:52.549Z,28.69
2023-09-07T12:30:24.021Z,28.54
2023-09-07T12:32:53.214Z,28.44
2023-09-07T12:35:22.133Z,28.37
2023-09-07T12:37:52.738Z,28.32
2023-09-07T12:40:31.393Z,28.30
2023-09-07T12:43:04.116Z,28.30
2023-09-07T12:45:34.463Z,28.29
2023-09-07T12:48:07.347Z,28.26
2023-09-07T12:50:38.119Z,28.27
2023-09-07T12:53:11.023Z,28.25
2023-09-07T12:55:40.760Z,28.22
2023-09-07T12:58:08.859Z,28.18
2023-09-07T13:00:36.669Z,28.15
2023-09-07T13:03:06.605Z,28.15
2023-09-07T13:05:34.689Z,28.12
2023-09-07T13:08:03.936Z,28.11
2023-09-07T13:10:32.027Z,28.06
2023-09-07T13:13:00.053Z,28.02
2023-09-07T13:15:28.078Z,28.02
2023-09-07T13:17:59.336Z,28.05
2023-09-07T13:20:28.230Z,28.04
2023-09-07T13:22:56.788Z,28.01
2023-09-07T13:25:27.567Z,28.03
2023-09-07T13:27:55.326Z,28.06
2023-09-07T13:30:26.238Z,28.08
2023-09-07T13:32:54.363Z,28.11
2023-09-07T13:35:22.280Z,28.18
2023-09-07T13:37:50.413Z,28.21
2023-09-07T13:40:20.904Z,28.25
2023-09-07T13:42:51.503Z,28.25
2023-09-07T13:45:22.512Z,28.21
2023-09-07T13:47:50.744Z,28.20
2023-09-07T13:50:20.312Z,28.18
2023-09-07T13:52:49.258Z,28.19
2023-09-07T13:55:17.727Z,28.21
2023-09-07T13:57:46.520Z,28.22
2023-09-07T14:00:15.028Z,28.26
2023-09-07T14:02:43.491Z,28.31
2023-09-07T14:05:13.850Z,28.29
2023-09-07T14:07:41.632Z,28.30
2023-09-07T14:10:09.380Z,28.37
2023-09-07T14:12:37.372Z,28.38
2023-09-07T14:15:05.393Z,28.42
2023-09-07T14:17:33.059Z,28.47
2023-09-07T14:20:03.615Z,28.49
2023-09-07T14:22:38.352Z,28.50
2023-09-07T14:25:06.371Z,28.51
2023-09-07T14:27:34.280Z,28.51
2023-09-07T14:30:02.099Z,28.51
2023-09-07T14:32:29.834Z,28.55
2023-09-07T14:34:57.627Z,28.58
2023-09-07T14:37:26.255Z,28.62
2023-09-07T14:40:00.610Z,28.63
2023-09-07T14:42:28.759Z,28.60
2023-09-07T14:44:59.058Z,28.59
2023-09-07T14:47:30.513Z,28.58
2023-09-07T14:49:58.262Z,28.58
2023-09-07T14:52:26.058Z,28.58
2023-09-07T14:54:56.734Z,28.57
2023-09-07T14:57:27.599Z,28.57
2023-09-07T14:59:55.189Z,28.57
2023-09-07T15:02:23.459Z,28.55
2023-09-07T15:04:52.444Z,28.54
2023-09-07T15:07:21.393Z,28.50
2023-09-07T15:09:51.005Z,28.44
2023-09-07T15:12:18.692Z,28.37
2023-09-07T15:14:46.315Z,28.34
2023-09-07T15:17:13.886Z,28.29
2023-09-07T15:19:41.494Z,28.26
2023-09-07T15:22:09.123Z,28.21
2023-09-07T15:24:36.670Z,28.17
2023-09-07T15:27:11.484Z,28.09
2023-09-07T15:29:39.535Z,28.04
2023-09-07T15:32:07.366Z,27.97
2023-09-07T15:34:34.945Z,27.90
2023-09-07T15:37:04.845Z,27.84
2023-09-07T15:39:33.239Z,27.79
2023-09-07T15:42:00.887Z,27.75
2023-09-07T15:44:30.014Z,27.70
2023-09-07T15:46:57.756Z,27.66
2023-09-07T15:49:25.256Z,27.59
2023-09-07T15:51:52.790Z,27.54
2023-09-07T15:54:20.461Z,27.47
2023-09-07T15:56:48.101Z,27.41
2023-09-07T15:59:15.668Z,27.36
2023-09-07T16:01:43.387Z,27.30
2023-09-07T16:04:10.958Z,27.24
2023-09-07T16:06:38.515Z,27.18
2023-09-07T16:09:07.052Z,27.13
2023-09-07T16:11:34.720Z,27.08
2023-09-07T16:14:02.394Z,27.05
2023-09-07T16:16:29.970Z,27.01
2023-09-07T16:18:57.577Z,26.94
2023-09-07T16:21:25.106Z,26.88
2023-09-07T16:23:52.696Z,26.82
2023-09-07T16:26:21.812Z,26.78
2023-09-07T16:28:49.859Z,26.72
2023-09-07T16:31:17.404Z,26.65
2023-09-07T16:33:44.928Z,26.57
2023-09-07T16:36:12.724Z,26.51
2023-09-07T16:38:40.281Z,26.45
2023-09-07T16:41:08.009Z,26.37
2023-09-07T16:43:35.705Z,26.25
2023-09-07T16:46:05.816Z,26.19
2023-09-07T16:48:33.797Z,26.11
2023-09-07T16:51:02.666Z,26.05
2023-09-07T16:53:31.719Z,26.01
2023-09-07T16:55:59.466Z,25.96
2023-09-07T16:58:41.548Z,25.92
2023-09-07T17:01:14.710Z,25.84
2023-09-07T17:03:42.686Z,25.78
2023-09-07T17:06:10.580Z,25.73
2023-09-07T17:08:38.270Z,25.65
2023-09-07T17:11:07.381Z,25.59
2023-09-07T17:13:36.313Z,25.53
2023-09-07T17:16:05.876Z,25.45
2023-09-07T17:18:33.764Z,25.39
2023-09-07T17:21:06.787Z,25.32
2023-09-07T17:23:34.461Z,25.25
2023-09-07T17:26:04.076Z,25.20
2023-09-07T17:28:32.666Z,25.13
2023-09-07T17:31:00.646Z,25.08
2023-09-07T17:33:28.446Z,25.02
2023-09-07T17:35:57.026Z,24.95
2023-09-07T17:38:24.820Z,24.88
2023-09-07T17:40:52.546Z,24.82
2023-09-07T17:43:20.114Z,24.72
2023-09-07T17:45:47.761Z,24.67
2023-09-07T17:48:15.491Z,24.62
2023-09-07T17:50:43.211Z,24.54
2023-09-07T17:53:10.925Z,24.45
2023-09-07T17:55:39.855Z,24.33
2023-09-07T17:58:07.500Z,24.27
2023-09-07T18:00:35.153Z,24.25
2023-09-07T18:03:02.857Z,24.21
2023-09-07T18:05:30.558Z,24.16
2023-09-07T18:07:58.188Z,24.10
2023-09-07T18:10:26.353Z,24.07
2023-09-07T18:12:54.077Z,24.03
2023-09-07T18:15:21.676Z,23.99
2023-09-07T18:17:49.470Z,23.96
2023-09-07T18:20:20.332Z,23.91
2023-09-07T18:22:47.945Z,23.84
2023-09-07T18:25:15.509Z,23.79
2023-09-07T18:27:43.119Z,23.73
2023-09-07T18:30:11.182Z,23.65
2023-09-07T18:32:38.724Z,23.61
2023-09-07T18:35:07.863Z,23.56
2023-09-07T18:37:36.838Z,23.49
2023-09-07T18:40:05.860Z,23.44
2023-09-07T18:42:35.526Z,23.41
2023-09-07T18:45:04.871Z,23.33
2023-09-07T18:47:33.416Z,23.25
2023-09-07T18:50:01.215Z,23.22
2023-09-07T18:52:28.842Z,23.18
2023-09-07T18:54:56.644Z,23.12
2023-09-07T18:57:24.250Z,23.05
2023-09-07T18:59:53.784Z,22.99
2023-09-07T19:02:21.465Z,22.91
2023-09-07T19:04:50.920Z,22.88
2023-09-07T19:07:22.596Z,22.85
2023-09-07T19:09:50.467Z,22.82
2023-09-07T19:12:18.312Z,22.78
2023-09-07T19:14:46.845Z,22.71
2023-09-07T19:17:14.502Z,22.62
2023-09-07T19:19:42.044Z,22.59
2023-09-07T19:22:09.701Z,22.57
2023-09-07T19:24:37.990Z,22.54
2023-09-07T19:27:05.883Z,22.49
2023-09-07T19:29:33.550Z,22.43
2023-09-07T19:32:02.335Z,22.36
2023-09-07T19:34:29.973Z,22.28
2023-09-07T19:36:57.503Z,22.21
2023-09-07T19:39:25.088Z,22.14
2023-09-07T19:41:52.863Z,22.11
2023-09-07T19:44:22.259Z,22.09
2023-09-07T19:46:49.929Z,22.06
2023-09-07T19:49:17.985Z,22.05
2023-09-07T19:51:45.517Z,22.02
2023-09-07T19:54:13.010Z,21.99
2023-09-07T19:56:43.238Z,21.95
2023-09-07T19:59:12.159Z,21.92
2023-09-07T20:01:59.877Z,21.90
2023-09-07T20:04:27.553Z,21.85
2023-09-07T20:06:55.931Z,21.80
2023-09-07T20:09:26.023Z,21.76
2023-09-07T20:11:54.436Z,21.71
2023-09-07T20:14:22.175Z,21.67
2023-09-07T20:16:49.803Z,21.62
2023-09-07T20:19:17.624Z,21.57
2023-09-07T20:21:45.345Z,21.50
2023-09-07T20:24:13.590Z,21.43
2023-09-07T20:26:41.184Z,21.37
2023-09-07T20:29:10.142Z,21.32
2023-09-07T20:31:38.112Z,21.26
2023-09-07T20:34:05.689Z,21.20
2023-09-07T20:36:33.233Z,21.16
2023-09-07T20:39:00.860Z,21.09
2023-09-07T20:41:28.566Z,21.06
2023-09-07T20:43:56.130Z,21.02
2023-09-07T20:46:23.678Z,20.98
2023-09-07T20:48:51.344Z,20.92
2023-09-07T20:51:18.976Z,20.87
2023-09-07T20:53:46.658Z,20.83
2023-09-07T20:56:14.248Z,20.77
2023-09-07T20:58:41.956Z,20.73
2023-09-07T21:01:09.632Z,20.69
2023-09-07T21:03:37.301Z,20.65
2023-09-07T21:06:04.983Z,20.61
2023-09-07T21:08:32.943Z,20.56
2023-09-07T21:11:00.892Z,20.51
2023-09-07T21:13:28.460Z,20.48
2023-09-07T21:15:55.993Z,20.44
2023-09-07T21:18:23.670Z,20.38
2023-09-07T21:20:51.267Z,20.31
2023-09-07T21:23:18.803Z,20.26
2023-09-07T21:25:46.404Z,20.21
2023-09-07T21:28:14.010Z,20.15
2023-09-07T21:30:41.619Z,20.09
2023-09-07T21:33:10.929Z,20.04
2023-09-07T21:35:38.702Z,19.99
2023-09-07T21:38:06.236Z,19.92
2023-09-07T21:40:33.884Z,19.87
2023-09-07T21:43:01.644Z,19.81
2023-09-07T21:45:29.228Z,19.76
2023-09-07T21:47:57.343Z,19.71
2023-09-07T21:50:26.384Z,19.66
2023-09-07T21:52:54.691Z,19.61
2023-09-07T21:55:22.414Z,19.56
2023-09-07T21:57:50.395Z,19.51
2023-09-07T22:00:18.137Z,19.46
2023-09-07T22:02:45.838Z,19.41
2023-09-07T22:05:13.695Z,19.36
2023-09-07T22:07:41.324Z,19.32
2023-09-07T22:10:09.143Z,19.28
2023-09-07T22:12:36.766Z,19.22
2023-09-07T22:15:05.821Z,19.16
2023-09-07T22:17:33.608Z,19.13
2023-09-07T22:20:01.597Z,19.08
2023-09-07T22:22:29.811Z,19.04
2023-09-07T22:24:57.446Z,18.98
2023-09-07T22:27:26.418Z,18.91
2023-09-07T22:29:54.571Z,18.92
2023-09-07T22:32:22.270Z,18.85
2023-09-07T22:34:50.219Z,18.77
2023-09-07T22:37:17.796Z,18.78
2023-09-07T22:39:45.759Z,18.78
2023-09-07T22:42:13.378Z,18.77
2023-09-07T22:44:40.936Z,18.75
2023-09-07T22:47:09.441Z,18.71
2023-09-07T22:49:36.902Z,18.68
2023-09-07T22:52:04.697Z,18.65
2023-09-07T22:54:32.598Z,18.63
2023-09-07T22:57:00.289Z,18.59
2023-09-07T22:59:28.138Z,18.56
2023-09-07T23:01:55.760Z,18.54
2023-09-07T23:04:23.553Z,18.52
2023-09-07T23:06:51.348Z,18.48
2023-09-07T23:09:21.021Z,18.44
2023-09-07T23:11:48.721Z,18.41
2023-09-07T23:14:16.419Z,18.38
2023-09-07T23:16:44.122Z,18.30
2023-09-07T23:19:11.811Z,18.28
2023-09-07T23:21:40.067Z,18.25
2023-09-07T23:24:07.711Z,18.22
2023-09-07T23:26:35.273Z,18.18
2023-09-07T23:29:02.829Z,18.16
2023-09-07T23:31:30.473Z,18.15
2023-09-07T23:33:57.991Z,18.13
2023-09-07T23:36:25.686Z,18.09
2023-09-07T23:38:53.419Z,18.06
2023-09-07T23:41:21.123Z,18.04
2023-09-07T23:43:48.881Z,17.98
2023-09-07T23:46:16.778Z,17.94
2023-09-07T23:48:44.455Z,17.90
2023-09-07T23:51:12.114Z,17.86
2023-09-07T23:53:39.879Z,17.85
2023-09-07T23:56:07.455Z,17.83
2023-09-07T23:58:35.272Z,17.77
